Waterloo, Wisconsin
Current Conditions -  °F | °C
As of 12:35 PM on Monday 26 Jan 2015 (Local Time) from KRYV Reporting Station
Light Snow Light Snow  
Wind Chill: 14°   Ceiling: 1200
Heat Index: 24°   Visibility: 4mi
Dew Point: 21°   Wind: 9mph
Humidity: 87%   Direction: 170°S
Pressure: 29.83"   Gusts: NA
Location:  43.18°N, 88.99°W
Report Text: KRYV 261835Z AUTO 17008KT 4SM -SN BKN012 BKN024 OVC034 M04/M06 A2983 RMK AO2 T10451063
Loading
Personal Weather Stations






























Interactive Weather Map New forecast layout! Learn more

10-Day Weather Forecast

Advertisements
Track Severe Weather on mobile